Time;durP1;ratioP1;P1;durP2;ratioP2;P2;SDS_P1;SDS_P2;PMS_P1;PMS_P2;Temp;Humidity;BMP_temperature;BMP_pressure;BME280_temperature;BME280_humidity;BME280_pressure;Samples;Min_cycle;Max_cycle;Signal;HPM_P1;HPM_P2
2023/08/21 00:01:18;;;;;;;6.28;2.33;;;;;;;;;;5061726;28;20040;-73
2023/08/21 00:03:49;;;;;;;8.75;2.10;;;;;;;;;;5062037;28;20541;-75
2023/08/21 00:06:19;;;;;;;5.93;2.20;;;;;;;;;;5061915;28;20048;-75
2023/08/21 00:08:50;;;;;;;5.10;2.30;;;;;;;;;;5060681;28;20057;-74
2023/08/21 00:11:21;;;;;;;6.32;2.22;;;;;;;;;;5061249;28;20059;-75
2023/08/21 00:13:51;;;;;;;8.63;2.60;;;;;;;;;;5062490;28;20045;-74
2023/08/21 00:16:21;;;;;;;5.80;2.30;;;;;;;;;;5060564;28;20055;-76
2023/08/21 00:18:52;;;;;;;3.60;2.28;;;;;;;;;;5062253;28;20051;-73
2023/08/21 00:21:23;;;;;;;5.93;2.65;;;;;;;;;;5061848;28;20071;-73
2023/08/21 00:23:53;;;;;;;8.10;3.00;;;;;;;;;;5061290;28;20049;-73
2023/08/21 00:26:24;;;;;;;4.53;2.03;;;;;;;;;;5061633;28;20045;-75
2023/08/21 00:28:54;;;;;;;6.10;2.25;;;;;;;;;;5061402;28;20048;-74
2023/08/21 00:31:24;;;;;;;5.80;2.30;;;;;;;;;;5060339;28;20060;-73
2023/08/21 00:33:55;;;;;;;6.60;2.35;;;;;;;;;;5060343;28;20044;-73
2023/08/21 00:36:25;;;;;;;3.08;2.25;;;;;;;;;;5061332;28;20044;-74
2023/08/21 00:38:55;;;;;;;3.40;2.10;;;;;;;;;;5059797;28;20507;-73
2023/08/21 00:41:27;;;;;;;3.50;2.25;;;;;;;;;;5061161;28;20389;-73
2023/08/21 00:43:58;;;;;;;2.22;1.85;;;;;;;;;;5061753;28;20052;-75
2023/08/21 00:46:37;;;;;;;3.83;2.60;;;;;;;;;;5064140;28;20059;-74
2023/08/21 00:49:08;;;;;;;6.22;2.20;;;;;;;;;;5063943;28;20550;-73
2023/08/21 00:51:39;;;;;;;2.83;1.95;;;;;;;;;;5063900;28;20045;-75
2023/08/21 00:54:10;;;;;;;4.50;2.22;;;;;;;;;;5065975;28;20048;-75
2023/08/21 00:56:41;;;;;;;3.30;2.17;;;;;;;;;;5064603;28;20052;-75
2023/08/21 00:59:12;;;;;;;7.30;2.40;;;;;;;;;;5064590;28;20052;-73
2023/08/21 01:01:43;;;;;;;5.78;2.25;;;;;;;;;;5062819;28;20056;-74
2023/08/21 01:04:14;;;;;;;4.20;2.10;;;;;;;;;;5064558;28;20049;-75
2023/08/21 01:06:45;;;;;;;7.22;2.90;;;;;;;;;;5064072;28;20071;-75
2023/08/21 01:09:30;;;;;;;3.58;2.25;;;;;;;;;;5065437;28;20051;-74
2023/08/21 01:12:38;;;;;;;4.88;2.53;;;;;;;;;;5064630;28;20123;-76
2023/08/21 01:15:10;;;;;;;4.60;2.17;;;;;;;;;;5059386;28;20143;-72
2023/08/21 01:17:43;;;;;;;3.13;1.95;;;;;;;;;;5064708;28;20051;-72
2023/08/21 01:20:14;;;;;;;4.97;2.00;;;;;;;;;;5065073;28;20063;-75
2023/08/21 01:22:47;;;;;;;8.00;2.60;;;;;;;;;;5063379;28;20093;-75
2023/08/21 01:25:18;;;;;;;3.72;2.05;;;;;;;;;;5064221;28;20051;-75
2023/08/21 01:27:51;;;;;;;3.58;2.13;;;;;;;;;;5064113;28;20053;-73
2023/08/21 01:30:22;;;;;;;2.70;1.75;;;;;;;;;;5063822;28;20052;-75
2023/08/21 01:33:22;;;;;;;5.00;1.95;;;;;;;;;;5061139;28;20052;-73
2023/08/21 01:35:55;;;;;;;2.55;1.50;;;;;;;;;;5036464;28;20068;-72
2023/08/21 01:38:26;;;;;;;3.38;2.10;;;;;;;;;;5044327;28;20530;-73
2023/08/21 01:40:56;;;;;;;5.25;2.47;;;;;;;;;;5043534;28;20451;-74
2023/08/21 01:43:26;;;;;;;4.05;2.25;;;;;;;;;;5043389;28;20057;-74
2023/08/21 01:45:57;;;;;;;4.00;2.10;;;;;;;;;;5042323;28;20049;-75
2023/08/21 01:48:28;;;;;;;7.43;2.35;;;;;;;;;;5042696;28;20067;-74
2023/08/21 01:51:04;;;;;;;7.93;2.40;;;;;;;;;;5044737;28;20059;-75
2023/08/21 01:53:34;;;;;;;5.88;2.28;;;;;;;;;;5041771;28;20052;-74
2023/08/21 01:56:04;;;;;;;5.50;2.40;;;;;;;;;;5044313;28;20518;-75
2023/08/21 01:58:35;;;;;;;6.05;2.25;;;;;;;;;;5042497;28;20070;-75
2023/08/21 02:01:06;;;;;;;4.50;1.92;;;;;;;;;;5042004;28;20423;-73
2023/08/21 02:03:37;;;;;;;3.90;1.77;;;;;;;;;;5043548;28;20052;-74
2023/08/21 02:06:07;;;;;;;4.28;1.83;;;;;;;;;;5042538;28;20625;-74
2023/08/21 02:08:38;;;;;;;3.00;2.05;;;;;;;;;;5043991;28;20053;-74
2023/08/21 02:11:09;;;;;;;3.13;2.20;;;;;;;;;;5044247;28;20045;-74
2023/08/21 02:13:39;;;;;;;3.17;2.10;;;;;;;;;;5041730;28;20053;-74
2023/08/21 02:16:10;;;;;;;2.58;1.95;;;;;;;;;;5042467;28;20507;-73
2023/08/21 02:18:42;;;;;;;5.05;2.40;;;;;;;;;;5025318;28;20072;-73
2023/08/21 02:21:13;;;;;;;4.97;2.42;;;;;;;;;;5042248;28;20064;-73
2023/08/21 02:23:43;;;;;;;4.20;2.38;;;;;;;;;;5041791;28;20053;-76
2023/08/21 02:26:17;;;;;;;4.57;2.50;;;;;;;;;;5043293;28;20067;-74
2023/08/21 02:28:48;;;;;;;3.95;2.53;;;;;;;;;;5043683;28;20053;-75
2023/08/21 02:31:19;;;;;;;3.55;2.38;;;;;;;;;;5042143;28;20420;-75
2023/08/21 02:33:51;;;;;;;3.75;2.20;;;;;;;;;;5043249;28;20411;-73
2023/08/21 02:36:22;;;;;;;4.03;2.35;;;;;;;;;;5041404;28;20135;-73
2023/08/21 02:38:53;;;;;;;5.88;2.45;;;;;;;;;;5043240;28;20053;-74
2023/08/21 02:41:24;;;;;;;10.45;2.58;;;;;;;;;;5043247;28;20507;-75
2023/08/21 02:43:55;;;;;;;4.93;2.38;;;;;;;;;;5043106;28;20045;-74
2023/08/21 02:46:26;;;;;;;6.43;2.13;;;;;;;;;;5041631;28;20528;-74
2023/08/21 02:48:55;;;;;;;4.90;2.72;;;;;;;;;;5042401;28;20393;-74
2023/08/21 02:51:26;;;;;;;4.45;2.40;;;;;;;;;;5042891;28;20496;-74
2023/08/21 02:53:57;;;;;;;4.63;2.55;;;;;;;;;;5041884;28;20045;-74
2023/08/21 02:56:27;;;;;;;4.22;2.40;;;;;;;;;;5040973;28;20045;-75
2023/08/21 02:58:57;;;;;;;6.50;2.47;;;;;;;;;;5040445;28;20500;-74
2023/08/21 03:01:27;;;;;;;4.05;2.38;;;;;;;;;;5040770;28;20053;-74
2023/08/21 03:03:58;;;;;;;4.43;2.72;;;;;;;;;;5043198;28;20048;-75
2023/08/21 03:06:29;;;;;;;4.10;2.75;;;;;;;;;;5041795;28;20500;-75
2023/08/21 03:09:00;;;;;;;4.03;2.75;;;;;;;;;;5042465;28;20487;-75
2023/08/21 03:11:31;;;;;;;4.18;2.85;;;;;;;;;;5042704;28;20053;-73
2023/08/21 03:14:01;;;;;;;5.90;2.80;;;;;;;;;;5042169;28;20911;-75
2023/08/21 03:16:38;;;;;;;3.67;2.58;;;;;;;;;;5043205;28;20049;-73
2023/08/21 03:19:09;;;;;;;4.57;2.88;;;;;;;;;;5042598;28;20055;-73
2023/08/21 03:21:40;;;;;;;5.07;2.85;;;;;;;;;;5042714;28;20067;-73
2023/08/21 03:24:10;;;;;;;4.45;2.83;;;;;;;;;;5039991;28;20519;-75
2023/08/21 03:26:42;;;;;;;3.75;3.03;;;;;;;;;;5040742;28;20587;-74
2023/08/21 03:29:12;;;;;;;5.93;3.00;;;;;;;;;;5042920;28;20048;-74
2023/08/21 03:31:42;;;;;;;4.75;2.90;;;;;;;;;;5041184;28;20057;-75
2023/08/21 03:34:12;;;;;;;3.95;2.75;;;;;;;;;;5042001;28;20045;-73
2023/08/21 03:36:43;;;;;;;4.63;2.72;;;;;;;;;;5040064;28;20061;-75
2023/08/21 03:39:15;;;;;;;4.00;2.88;;;;;;;;;;5039814;28;20705;-76
2023/08/21 03:41:47;;;;;;;4.95;2.78;;;;;;;;;;5039993;28;20863;-75
2023/08/21 03:44:17;;;;;;;4.57;2.78;;;;;;;;;;5040571;28;20052;-73
2023/08/21 03:46:47;;;;;;;4.32;2.90;;;;;;;;;;5042297;28;20518;-72
2023/08/21 03:49:18;;;;;;;4.85;2.75;;;;;;;;;;5040357;28;20057;-76
2023/08/21 03:51:51;;;;;;;7.35;3.35;;;;;;;;;;5041385;28;20064;-73
2023/08/21 03:54:21;;;;;;;7.32;3.13;;;;;;;;;;5040358;28;20057;-75
2023/08/21 03:56:51;;;;;;;4.68;2.90;;;;;;;;;;5042253;28;20488;-75
2023/08/21 03:59:23;;;;;;;6.53;3.13;;;;;;;;;;5040432;28;20569;-73
2023/08/21 04:01:55;;;;;;;4.53;2.60;;;;;;;;;;5039802;28;20048;-73
2023/08/21 04:04:26;;;;;;;6.15;3.10;;;;;;;;;;5040073;28;20053;-75
2023/08/21 04:06:56;;;;;;;4.38;3.03;;;;;;;;;;5039126;28;20044;-75
2023/08/21 04:09:28;;;;;;;6.13;3.20;;;;;;;;;;5041264;28;20045;-74
2023/08/21 04:11:58;;;;;;;4.97;2.72;;;;;;;;;;5041629;28;20045;-75
2023/08/21 04:14:30;;;;;;;5.97;3.15;;;;;;;;;;5039973;28;20045;-73
2023/08/21 04:17:00;;;;;;;4.68;3.08;;;;;;;;;;5040188;28;20049;-74
2023/08/21 04:19:33;;;;;;;4.82;3.08;;;;;;;;;;5041174;28;20672;-75
2023/08/21 04:22:04;;;;;;;3.45;2.78;;;;;;;;;;5040324;28;20064;-73
2023/08/21 04:24:36;;;;;;;4.05;2.75;;;;;;;;;;5040891;28;20049;-74
2023/08/21 04:27:08;;;;;;;6.40;2.60;;;;;;;;;;5042471;28;20602;-73
2023/08/21 04:29:39;;;;;;;4.05;3.00;;;;;;;;;;5040792;28;20709;-74
2023/08/21 04:32:11;;;;;;;3.83;3.13;;;;;;;;;;5039791;28;20064;-73
2023/08/21 04:34:42;;;;;;;4.38;3.00;;;;;;;;;;5040073;28;20053;-74
2023/08/21 04:37:14;;;;;;;4.60;3.00;;;;;;;;;;5039117;28;20056;-74
2023/08/21 04:39:45;;;;;;;4.57;2.70;;;;;;;;;;5039724;28;20095;-75
2023/08/21 04:42:17;;;;;;;4.88;2.90;;;;;;;;;;5040754;28;20512;-72
2023/08/21 04:44:49;;;;;;;6.85;3.03;;;;;;;;;;5039726;28;20427;-76
2023/08/21 04:47:24;;;;;;;4.22;3.05;;;;;;;;;;5039930;28;20076;-74
2023/08/21 04:49:57;;;;;;;4.45;3.00;;;;;;;;;;5040165;28;20056;-74
2023/08/21 04:52:29;;;;;;;4.25;3.22;;;;;;;;;;5040340;28;20053;-74
2023/08/21 04:55:02;;;;;;;8.55;3.30;;;;;;;;;;5040457;28;20064;-76
2023/08/21 04:57:34;;;;;;;7.15;3.30;;;;;;;;;;5039822;28;20516;-76
2023/08/21 05:00:09;;;;;;;3.75;3.10;;;;;;;;;;5039553;28;20045;-72
2023/08/21 05:02:43;;;;;;;5.18;2.90;;;;;;;;;;5039914;28;20092;-73
2023/08/21 05:05:16;;;;;;;4.88;2.78;;;;;;;;;;5039286;28;20136;-73
2023/08/21 05:07:46;;;;;;;4.03;2.90;;;;;;;;;;5041091;28;20049;-74
2023/08/21 05:10:16;;;;;;;5.03;3.25;;;;;;;;;;5039241;28;20057;-72
2023/08/21 05:12:48;;;;;;;3.97;2.88;;;;;;;;;;5039024;28;20057;-76
2023/08/21 05:15:19;;;;;;;7.50;2.83;;;;;;;;;;5039101;28;20061;-75
2023/08/21 05:17:50;;;;;;;3.72;2.83;;;;;;;;;;5039228;28;20508;-73
2023/08/21 05:20:21;;;;;;;5.32;2.95;;;;;;;;;;5040463;28;20053;-74
2023/08/21 05:22:52;;;;;;;8.07;3.45;;;;;;;;;;5039880;28;20064;-76
2023/08/21 05:25:23;;;;;;;5.93;3.33;;;;;;;;;;5040030;28;20412;-75
2023/08/21 05:27:54;;;;;;;5.70;3.53;;;;;;;;;;5039255;28;20064;-74
2023/08/21 05:30:25;;;;;;;4.68;2.72;;;;;;;;;;5044058;28;20060;-72
2023/08/21 05:32:56;;;;;;;9.98;3.22;;;;;;;;;;5042889;28;20512;-73
2023/08/21 05:35:26;;;;;;;4.90;3.00;;;;;;;;;;5042045;28;21077;-76
2023/08/21 05:37:57;;;;;;;4.45;3.13;;;;;;;;;;5043014;28;20500;-74
2023/08/21 05:40:28;;;;;;;7.22;3.33;;;;;;;;;;5043153;28;20064;-73
2023/08/21 05:42:59;;;;;;;4.22;3.03;;;;;;;;;;5042989;28;20088;-74
2023/08/21 05:45:31;;;;;;;14.73;3.40;;;;;;;;;;5044222;28;20515;-74
2023/08/21 05:48:02;;;;;;;4.22;2.90;;;;;;;;;;5043864;28;20048;-74
2023/08/21 05:50:32;;;;;;;7.88;3.00;;;;;;;;;;5044762;28;20044;-73
2023/08/21 05:53:06;;;;;;;4.15;2.70;;;;;;;;;;5042374;28;20053;-75
2023/08/21 05:55:41;;;;;;;5.57;2.70;;;;;;;;;;5042416;28;20045;-73
2023/08/21 05:58:12;;;;;;;5.47;3.10;;;;;;;;;;5041824;28;20064;-74
2023/08/21 06:00:44;;;;;;;6.35;2.90;;;;;;;;;;5026283;28;20432;-73
2023/08/21 06:03:14;;;;;;;5.38;2.92;;;;;;;;;;5044391;28;20044;-75
2023/08/21 06:06:14;;;;;;;4.55;2.90;;;;;;;;;;5039111;28;20116;-74
2023/08/21 06:08:45;;;;;;;4.13;2.70;;;;;;;;;;5041625;28;20519;-73
2023/08/21 06:11:15;;;;;;;3.92;2.60;;;;;;;;;;5043855;28;20049;-73
2023/08/21 06:13:45;;;;;;;6.45;3.03;;;;;;;;;;5042354;28;20515;-73
2023/08/21 06:16:17;;;;;;;6.10;2.40;;;;;;;;;;5044010;28;20416;-72
2023/08/21 06:18:50;;;;;;;6.03;2.88;;;;;;;;;;5041789;28;20080;-73
2023/08/21 06:21:20;;;;;;;5.05;2.63;;;;;;;;;;5041159;28;20060;-74
2023/08/21 06:23:50;;;;;;;3.92;2.70;;;;;;;;;;5041246;28;20060;-74
2023/08/21 06:26:21;;;;;;;5.07;2.40;;;;;;;;;;5041689;28;20049;-75
2023/08/21 06:28:52;;;;;;;3.35;2.42;;;;;;;;;;5041405;28;20060;-72
2023/08/21 06:31:23;;;;;;;2.90;2.40;;;;;;;;;;5043558;28;20048;-74
2023/08/21 06:33:54;;;;;;;5.22;2.75;;;;;;;;;;5025710;28;20067;-75
2023/08/21 06:36:24;;;;;;;2.60;2.17;;;;;;;;;;5042443;28;20411;-72
2023/08/21 06:38:56;;;;;;;3.85;2.58;;;;;;;;;;5044038;28;20491;-72
2023/08/21 06:41:27;;;;;;;3.92;2.42;;;;;;;;;;5040811;28;20719;-75
2023/08/21 06:43:58;;;;;;;4.00;2.55;;;;;;;;;;5043211;28;20049;-73
2023/08/21 06:46:30;;;;;;;4.07;2.28;;;;;;;;;;5041467;28;20056;-75
2023/08/21 06:49:01;;;;;;;7.43;2.60;;;;;;;;;;5041958;28;20496;-73
2023/08/21 06:51:31;;;;;;;3.72;2.55;;;;;;;;;;5042835;28;20048;-73
2023/08/21 06:54:09;;;;;;;4.05;2.50;;;;;;;;;;5042792;28;20048;-74
2023/08/21 06:56:40;;;;;;;4.22;2.28;;;;;;;;;;5043360;28;20045;-73
2023/08/21 06:59:10;;;;;;;3.20;2.30;;;;;;;;;;5041187;28;20416;-74
2023/08/21 07:01:42;;;;;;;4.53;2.50;;;;;;;;;;5042539;28;20049;-73
2023/08/21 07:04:13;;;;;;;5.18;2.75;;;;;;;;;;5042366;28;20053;-72
2023/08/21 07:06:43;;;;;;;6.30;2.70;;;;;;;;;;5042537;28;20559;-74
2023/08/21 07:09:15;;;;;;;4.80;2.53;;;;;;;;;;5043071;28;20045;-73
2023/08/21 07:11:45;;;;;;;3.65;2.63;;;;;;;;;;5043402;28;20582;-75
2023/08/21 07:14:16;;;;;;;3.85;2.67;;;;;;;;;;5042634;28;20037;-72
2023/08/21 07:16:48;;;;;;;4.18;2.28;;;;;;;;;;5042668;28;20511;-75
2023/08/21 07:19:20;;;;;;;3.10;2.28;;;;;;;;;;5040988;28;20555;-75
2023/08/21 07:21:50;;;;;;;5.20;3.20;;;;;;;;;;5040878;28;20071;-74
2023/08/21 07:24:20;;;;;;;5.18;2.85;;;;;;;;;;5042188;28;20044;-74
2023/08/21 07:26:50;;;;;;;3.80;2.42;;;;;;;;;;5042094;28;20503;-73
2023/08/21 07:29:20;;;;;;;4.07;2.60;;;;;;;;;;5043165;28;20052;-74
2023/08/21 07:31:51;;;;;;;4.93;2.58;;;;;;;;;;5042550;28;20053;-75
2023/08/21 07:34:23;;;;;;;5.47;2.60;;;;;;;;;;5040326;28;20053;-72
2023/08/21 07:36:53;;;;;;;4.95;2.25;;;;;;;;;;5042555;28;20373;-74
2023/08/21 07:39:22;;;;;;;;;;;;;;;;;;5042548;28;20045;-74
2023/08/21 07:41:53;;;;;;;4.95;2.58;;;;;;;;;;5041919;28;19924;-72
2023/08/21 07:44:23;;;;;;;3.15;2.35;;;;;;;;;;5041715;28;20045;-75
2023/08/21 07:46:54;;;;;;;4.57;2.13;;;;;;;;;;5041334;28;20056;-73
2023/08/21 07:49:24;;;;;;;7.38;2.65;;;;;;;;;;5042197;28;20052;-75
2023/08/21 07:51:54;;;;;;;3.80;2.63;;;;;;;;;;5041875;28;20519;-74
2023/08/21 07:54:24;;;;;;;3.75;2.50;;;;;;;;;;5041642;28;20790;-73
2023/08/21 07:56:59;;;;;;;5.65;2.60;;;;;;;;;;5042106;28;20060;-75
2023/08/21 07:59:29;;;;;;;4.28;2.45;;;;;;;;;;5041167;28;20041;-74
2023/08/21 08:02:00;;;;;;;5.57;2.75;;;;;;;;;;5042291;28;20041;-73
2023/08/21 08:04:31;;;;;;;4.38;2.60;;;;;;;;;;5042499;28;20052;-73
2023/08/21 08:07:02;;;;;;;2.80;2.20;;;;;;;;;;5041887;28;20056;-74
2023/08/21 08:09:33;;;;;;;4.95;2.95;;;;;;;;;;5041806;28;20052;-73
2023/08/21 08:12:03;;;;;;;3.90;2.63;;;;;;;;;;5040118;28;20045;-72
2023/08/21 08:14:38;;;;;;;3.65;2.53;;;;;;;;;;5041345;28;20049;-73
2023/08/21 08:17:09;;;;;;;6.65;3.38;;;;;;;;;;5041733;28;20056;-72
2023/08/21 08:19:40;;;;;;;5.65;2.80;;;;;;;;;;5041666;28;20107;-76
2023/08/21 08:22:11;;;;;;;3.83;2.70;;;;;;;;;;5041524;28;20061;-74
2023/08/21 08:24:41;;;;;;;4.35;2.58;;;;;;;;;;5041312;28;20063;-75
2023/08/21 08:27:12;;;;;;;4.07;2.40;;;;;;;;;;5041497;28;20052;-75
2023/08/21 08:29:43;;;;;;;2.78;2.13;;;;;;;;;;5041376;28;20496;-74
2023/08/21 08:32:13;;;;;;;3.88;2.38;;;;;;;;;;5041513;28;20447;-73
2023/08/21 08:34:46;;;;;;;5.57;2.50;;;;;;;;;;5041461;28;20059;-74
2023/08/21 08:37:19;;;;;;;4.43;2.38;;;;;;;;;;5041681;28;20064;-72
2023/08/21 08:39:49;;;;;;;4.20;2.22;;;;;;;;;;5041643;28;20053;-73
2023/08/21 08:42:20;;;;;;;4.45;2.47;;;;;;;;;;5041200;28;20045;-73
2023/08/21 08:44:52;;;;;;;3.97;2.45;;;;;;;;;;5040290;28;20602;-73
2023/08/21 08:47:24;;;;;;;4.55;2.80;;;;;;;;;;5041408;28;20052;-74
2023/08/21 08:49:56;;;;;;;3.92;2.28;;;;;;;;;;5041257;28;20052;-74
2023/08/21 08:52:28;;;;;;;4.45;2.45;;;;;;;;;;5039925;28;20052;-74
2023/08/21 08:54:59;;;;;;;6.88;2.65;;;;;;;;;;5041451;28;20049;-73
2023/08/21 08:57:30;;;;;;;4.05;2.53;;;;;;;;;;5041865;28;20059;-74
2023/08/21 09:00:04;;;;;;;3.75;2.80;;;;;;;;;;5041368;28;20049;-75
2023/08/21 09:02:35;;;;;;;5.97;2.38;;;;;;;;;;5041115;28;20053;-74
2023/08/21 09:05:08;;;;;;;4.93;3.25;;;;;;;;;;5044267;28;20060;-75
2023/08/21 09:07:40;;;;;;;7.97;3.10;;;;;;;;;;5045276;28;20526;-73
2023/08/21 09:10:15;;;;;;;9.52;4.00;;;;;;;;;;5043238;28;20057;-75
2023/08/21 09:12:46;;;;;;;10.38;4.22;;;;;;;;;;5045081;28;20055;-74
2023/08/21 09:15:17;;;;;;;9.45;5.22;;;;;;;;;;5045275;28;20049;-74
2023/08/21 09:17:54;;;;;;;9.27;5.47;;;;;;;;;;5045279;28;20060;-76
2023/08/21 09:20:25;;;;;;;8.20;4.90;;;;;;;;;;5044636;28;20124;-72
2023/08/21 09:22:56;;;;;;;10.40;5.47;;;;;;;;;;5045344;28;20068;-73
2023/08/21 09:25:27;;;;;;;13.85;6.70;;;;;;;;;;5044828;28;20520;-74
2023/08/21 09:27:59;;;;;;;16.58;7.03;;;;;;;;;;5045111;28;20056;-73
2023/08/21 09:30:30;;;;;;;14.60;6.32;;;;;;;;;;5045099;28;20060;-73
2023/08/21 09:33:00;;;;;;;12.63;8.20;;;;;;;;;;5045285;28;20119;-73
2023/08/21 09:35:33;;;;;;;13.55;7.70;;;;;;;;;;5044703;28;20492;-73
2023/08/21 09:38:04;;;;;;;20.35;9.52;;;;;;;;;;5043087;28;20052;-73
2023/08/21 09:40:38;;;;;;;16.02;9.25;;;;;;;;;;5044431;28;20519;-74
2023/08/21 09:43:11;;;;;;;15.65;9.52;;;;;;;;;;5044087;28;20049;-73
2023/08/21 09:45:45;;;;;;;21.25;9.85;;;;;;;;;;5044121;28;20049;-72
2023/08/21 09:48:17;;;;;;;13.60;8.57;;;;;;;;;;5043647;28;20041;-74
2023/08/21 09:50:48;;;;;;;16.58;7.93;;;;;;;;;;5044424;28;20037;-78
2023/08/21 09:53:23;;;;;;;13.98;8.45;;;;;;;;;;5044340;28;20063;-75
2023/08/21 09:55:55;;;;;;;15.82;9.00;;;;;;;;;;5044464;28;20037;-72
2023/08/21 09:58:26;;;;;;;18.65;9.27;;;;;;;;;;5042786;28;20060;-75
2023/08/21 10:01:00;;;;;;;15.73;8.73;;;;;;;;;;5045778;28;20045;-73
2023/08/21 10:03:32;;;;;;;17.30;8.15;;;;;;;;;;5044400;28;20048;-74
2023/08/21 10:06:02;;;;;;;13.15;8.60;;;;;;;;;;5043372;28;20628;-73
2023/08/21 10:08:40;;;;;;;13.75;8.02;;;;;;;;;;5043659;28;20056;-77
2023/08/21 10:11:10;;;;;;;13.60;8.30;;;;;;;;;;5043297;28;20045;-75
2023/08/21 10:13:41;;;;;;;15.02;8.25;;;;;;;;;;5043276;28;20056;-74
2023/08/21 10:16:13;;;;;;;15.57;9.02;;;;;;;;;;5043770;28;20056;-74
2023/08/21 10:18:47;;;;;;;13.32;8.25;;;;;;;;;;5043475;28;20045;-75
2023/08/21 10:21:25;;;;;;;17.67;9.75;;;;;;;;;;5042733;28;20049;-75
2023/08/21 10:24:02;;;;;;;12.65;8.68;;;;;;;;;;5043474;28;20053;-78
2023/08/21 10:26:42;;;;;;;21.58;9.63;;;;;;;;;;5043668;28;20512;-74
2023/08/21 10:29:16;;;;;;;14.75;8.75;;;;;;;;;;5043081;28;20052;-73
2023/08/21 10:31:46;;;;;;;12.38;8.32;;;;;;;;;;5044040;28;20049;-76
2023/08/21 10:34:19;;;;;;;17.67;9.55;;;;;;;;;;5043601;28;20053;-74
2023/08/21 10:37:14;;;;;;;12.77;8.15;;;;;;;;;;5043788;28;20422;-74
2023/08/21 10:40:02;;;;;;;12.50;7.68;;;;;;;;;;5047186;28;20598;-77
2023/08/21 10:42:42;;;;;;;10.60;7.35;;;;;;;;;;5061711;28;20040;-73
2023/08/21 10:45:13;;;;;;;13.52;7.15;;;;;;;;;;5057966;28;20043;-76
2023/08/21 10:47:46;;;;;;;14.38;8.05;;;;;;;;;;5060815;28;20499;-75
2023/08/21 10:50:18;;;;;;;14.35;7.28;;;;;;;;;;5062459;28;20055;-73
2023/08/21 10:52:51;;;;;;;12.60;6.88;;;;;;;;;;5062790;28;20053;-75
2023/08/21 10:55:23;;;;;;;13.60;6.45;;;;;;;;;;5062522;28;20141;-76
2023/08/21 10:57:55;;;;;;;13.80;7.30;;;;;;;;;;5062830;28;20048;-75
2023/08/21 11:00:26;;;;;;;11.68;7.13;;;;;;;;;;5062948;28;20454;-73
2023/08/21 11:02:57;;;;;;;11.05;6.97;;;;;;;;;;5062960;28;20036;-75
2023/08/21 11:05:29;;;;;;;9.80;6.72;;;;;;;;;;5062827;28;20044;-73
2023/08/21 11:08:00;;;;;;;11.13;6.70;;;;;;;;;;5063226;28;20835;-73
2023/08/21 11:10:31;;;;;;;14.68;6.07;;;;;;;;;;5062616;28;20067;-74
2023/08/21 11:13:07;;;;;;;10.63;7.07;;;;;;;;;;5062058;28;20056;-74
2023/08/21 11:15:37;;;;;;;11.82;6.03;;;;;;;;;;5062839;28;20048;-77
2023/08/21 11:18:08;;;;;;;12.20;7.03;;;;;;;;;;5062557;28;20406;-75
2023/08/21 11:20:37;;;;;;;12.50;5.85;;;;;;;;;;5061918;28;20044;-74
2023/08/21 11:23:12;;;;;;;8.38;5.32;;;;;;;;;;5061949;28;20415;-74
2023/08/21 11:25:43;;;;;;;8.85;5.50;;;;;;;;;;5061878;28;20047;-75
2023/08/21 11:28:17;;;;;;;8.55;4.82;;;;;;;;;;5061474;28;20052;-77
2023/08/21 11:30:47;;;;;;;8.68;3.92;;;;;;;;;;5062251;28;21141;-84
2023/08/21 11:33:18;;;;;;;5.13;4.10;;;;;;;;;;5059878;28;20057;-73
2023/08/21 11:35:53;;;;;;;8.35;4.38;;;;;;;;;;5062071;28;20063;-74
2023/08/21 11:38:26;;;;;;;6.38;3.63;;;;;;;;;;5062373;28;20055;-80
2023/08/21 11:41:02;;;;;;;6.82;3.88;;;;;;;;;;5062822;28;20052;-77
2023/08/21 11:43:42;;;;;;;9.60;4.20;;;;;;;;;;5061912;28;20051;-76
2023/08/21 11:46:13;;;;;;;8.57;3.83;;;;;;;;;;5061746;28;20388;-75
2023/08/21 11:48:45;;;;;;;9.50;3.92;;;;;;;;;;5060882;28;20727;-75
2023/08/21 11:51:15;;;;;;;5.93;3.60;;;;;;;;;;5061842;28;20048;-75
2023/08/21 11:53:49;;;;;;;5.78;3.80;;;;;;;;;;5062557;28;20453;-81
2023/08/21 11:56:19;;;;;;;5.82;3.65;;;;;;;;;;5061743;28;20403;-78
2023/08/21 11:58:52;;;;;;;6.35;3.50;;;;;;;;;;5062177;28;20044;-74
2023/08/21 12:01:23;;;;;;;5.03;3.65;;;;;;;;;;5062003;28;20051;-75
2023/08/21 12:03:56;;;;;;;5.22;3.40;;;;;;;;;;5061605;28;20056;-75
2023/08/21 12:06:32;;;;;;;8.77;4.00;;;;;;;;;;5061611;28;20040;-75
2023/08/21 12:09:04;;;;;;;8.52;3.67;;;;;;;;;;5061647;28;20415;-74
2023/08/21 12:11:35;;;;;;;5.78;3.30;;;;;;;;;;5061164;28;20407;-75
2023/08/21 12:14:06;;;;;;;7.78;4.20;;;;;;;;;;5061673;28;20416;-74
2023/08/21 12:16:38;;;;;;;7.85;4.47;;;;;;;;;;5061406;28;20055;-74
2023/08/21 12:19:09;;;;;;;5.78;4.10;;;;;;;;;;5060939;28;20044;-75
2023/08/21 12:21:39;;;;;;;8.63;4.38;;;;;;;;;;5061313;28;20053;-73
2023/08/21 12:24:10;;;;;;;6.90;3.92;;;;;;;;;;5061430;28;20495;-75
2023/08/21 12:26:40;;;;;;;4.75;3.47;;;;;;;;;;5061566;28;20041;-74
2023/08/21 12:29:18;;;;;;;15.05;4.13;;;;;;;;;;5062572;28;20055;-74
2023/08/21 12:31:48;;;;;;;10.40;3.97;;;;;;;;;;5062791;28;20057;-75
2023/08/21 12:34:20;;;;;;;4.93;3.38;;;;;;;;;;5060790;28;20507;-80
2023/08/21 12:36:52;;;;;;;14.55;4.28;;;;;;;;;;5061552;28;20049;-75
2023/08/21 12:39:23;;;;;;;5.05;3.50;;;;;;;;;;5064718;28;20095;-74
2023/08/21 12:41:53;;;;;;;7.53;3.22;;;;;;;;;;5064819;28;20091;-76
2023/08/21 12:44:25;;;;;;;7.18;3.10;;;;;;;;;;5066246;28;20667;-77
2023/08/21 12:46:55;;;;;;;6.78;3.50;;;;;;;;;;5064907;28;20052;-75
2023/08/21 12:49:26;;;;;;;4.35;3.40;;;;;;;;;;5065216;28;20538;-74
2023/08/21 12:51:56;;;;;;;7.78;3.55;;;;;;;;;;5065102;28;20049;-77
2023/08/21 12:54:27;;;;;;;5.72;2.90;;;;;;;;;;5065173;28;20144;-76
2023/08/21 12:56:57;;;;;;;6.55;3.42;;;;;;;;;;5065782;28;20383;-75
2023/08/21 12:59:29;;;;;;;7.95;3.20;;;;;;;;;;5064844;28;20048;-74
2023/08/21 13:02:01;;;;;;;5.93;3.03;;;;;;;;;;5065136;28;20055;-74
2023/08/21 13:04:32;;;;;;;7.28;3.22;;;;;;;;;;5065450;28;20059;-76
2023/08/21 13:07:03;;;;;;;7.93;3.35;;;;;;;;;;5065628;28;20415;-76
2023/08/21 13:09:34;;;;;;;9.80;3.22;;;;;;;;;;5064904;28;20040;-79
2023/08/21 13:12:05;;;;;;;8.15;3.30;;;;;;;;;;5064592;28;20479;-74
2023/08/21 13:14:35;;;;;;;4.88;3.67;;;;;;;;;;5064735;28;20538;-76
2023/08/21 13:17:06;;;;;;;4.93;3.42;;;;;;;;;;5065103;28;20573;-74
2023/08/21 13:19:37;;;;;;;8.95;4.00;;;;;;;;;;5065008;28;20045;-75
2023/08/21 13:22:07;;;;;;;6.22;3.13;;;;;;;;;;5063072;28;20071;-74
2023/08/21 13:24:37;;;;;;;4.50;3.55;;;;;;;;;;5064629;28;20045;-76
2023/08/21 13:27:08;;;;;;;4.72;3.38;;;;;;;;;;5064823;28;20510;-75
2023/08/21 13:29:40;;;;;;;5.50;3.75;;;;;;;;;;5064789;28;20518;-75
2023/08/21 13:32:10;;;;;;;6.72;3.75;;;;;;;;;;5064529;28;20044;-73
2023/08/21 13:34:40;;;;;;;6.45;3.42;;;;;;;;;;5065250;28;20320;-76
2023/08/21 13:37:19;;;;;;;5.57;3.47;;;;;;;;;;5065402;28;20048;-77
2023/08/21 13:39:51;;;;;;;7.30;3.88;;;;;;;;;;5064818;28;20108;-77
2023/08/21 13:42:37;;;;;;;7.63;3.72;;;;;;;;;;5065434;28;20526;-75
2023/08/21 13:45:12;;;;;;;5.90;3.83;;;;;;;;;;5063152;28;20055;-76
2023/08/21 13:47:47;;;;;;;6.72;4.03;;;;;;;;;;5064813;28;20040;-76
2023/08/21 13:50:22;;;;;;;7.88;4.55;;;;;;;;;;5064146;28;20510;-76
2023/08/21 13:52:52;;;;;;;10.63;4.47;;;;;;;;;;5066094;28;20107;-74
2023/08/21 13:55:23;;;;;;;6.95;4.55;;;;;;;;;;5064348;28;20049;-74
2023/08/21 13:57:54;;;;;;;7.85;5.53;;;;;;;;;;5063499;28;20044;-74
2023/08/21 14:00:24;;;;;;;12.20;5.88;;;;;;;;;;5064466;28;20052;-75
2023/08/21 14:02:55;;;;;;;7.95;4.90;;;;;;;;;;5062780;28;20524;-76
2023/08/21 14:05:27;;;;;;;7.78;4.80;;;;;;;;;;5064202;28;20040;-76
2023/08/21 14:07:58;;;;;;;6.82;4.68;;;;;;;;;;5063791;28;20055;-74
2023/08/21 14:10:30;;;;;;;9.45;5.00;;;;;;;;;;5063962;28;20044;-79
2023/08/21 14:13:03;;;;;;;5.25;4.15;;;;;;;;;;5063328;28;20044;-74
2023/08/21 14:15:34;;;;;;;8.38;4.78;;;;;;;;;;5063826;28;20048;-76
2023/08/21 14:18:04;;;;;;;6.20;4.10;;;;;;;;;;5063865;28;20063;-75
2023/08/21 14:20:35;;;;;;;8.50;5.07;;;;;;;;;;5064052;28;20048;-75
2023/08/21 14:23:06;;;;;;;8.88;4.63;;;;;;;;;;5063832;28;20504;-77
2023/08/21 14:25:38;;;;;;;7.13;4.72;;;;;;;;;;5063396;28;20049;-76
2023/08/21 14:28:09;;;;;;;6.18;4.20;;;;;;;;;;5063331;28;20526;-76
2023/08/21 14:30:39;;;;;;;8.85;4.65;;;;;;;;;;5062799;28;20059;-75
2023/08/21 14:33:11;;;;;;;9.50;5.25;;;;;;;;;;5063676;28;20048;-76
2023/08/21 14:35:42;;;;;;;9.52;4.38;;;;;;;;;;5062964;28;20060;-82
2023/08/21 14:38:13;;;;;;;5.70;3.83;;;;;;;;;;5064050;28;20373;-75
2023/08/21 14:40:44;;;;;;;5.90;4.47;;;;;;;;;;5063438;28;20052;-76
2023/08/21 14:43:15;;;;;;;9.65;4.97;;;;;;;;;;5063111;28;20056;-77
2023/08/21 14:45:47;;;;;;;8.65;4.85;;;;;;;;;;5061410;28;20045;-76
2023/08/21 14:48:18;;;;;;;6.60;4.93;;;;;;;;;;5062950;28;20462;-76
2023/08/21 14:50:49;;;;;;;6.22;4.60;;;;;;;;;;5063412;28;20095;-75
2023/08/21 14:53:19;;;;;;;14.13;5.68;;;;;;;;;;5062020;28;20582;-75
2023/08/21 14:55:51;;;;;;;8.70;4.57;;;;;;;;;;5063261;28;20049;-78
2023/08/21 14:58:23;;;;;;;7.30;4.80;;;;;;;;;;5063543;28;20082;-76
2023/08/21 15:00:58;;;;;;;5.88;4.38;;;;;;;;;;5062258;28;20052;-77
2023/08/21 15:03:29;;;;;;;9.90;4.85;;;;;;;;;;5062055;28;20533;-75
2023/08/21 15:06:04;;;;;;;6.18;4.20;;;;;;;;;;5062632;28;20048;-75
2023/08/21 15:08:34;;;;;;;8.90;4.82;;;;;;;;;;5062504;28;20056;-77